createdAt,value
2019-05-07T00:00:21.601Z,1007.6
2019-05-07T00:01:18.911Z,1007.5
2019-05-07T00:02:17.444Z,1007.55
2019-05-07T00:03:16.020Z,1007.52
2019-05-07T00:04:14.792Z,1007.45
2019-05-07T00:05:13.383Z,1007.48
2019-05-07T00:06:12.422Z,1007.47
2019-05-07T00:07:12.800Z,1007.41
2019-05-07T00:08:09.372Z,1007.45
2019-05-07T00:09:08.035Z,1007.42
2019-05-07T00:10:06.899Z,1007.38
2019-05-07T00:11:05.510Z,1007.39
2019-05-07T00:12:05.031Z,1007.44
2019-05-07T00:13:02.957Z,1007.39
2019-05-07T00:14:03.114Z,1007.41
2019-05-07T00:15:02.163Z,1007.34
2019-05-07T00:15:58.997Z,1007.37
2019-05-07T00:16:57.532Z,1007.35
2019-05-07T00:17:56.151Z,1007.36
2019-05-07T00:18:54.947Z,1007.36
2019-05-07T00:19:53.476Z,1007.35
2019-05-07T00:20:52.909Z,1007.32
2019-05-07T00:21:52.738Z,1007.37
2019-05-07T00:22:49.578Z,1007.3
2019-05-07T00:23:48.152Z,1007.27
2019-05-07T00:24:46.792Z,1007.3
2019-05-07T00:25:45.316Z,1007.26
2019-05-07T00:26:43.849Z,1007.27
2019-05-07T00:27:42.937Z,1007.28
2019-05-07T00:28:43.161Z,1007.25
2019-05-07T00:29:40.178Z,1007.21
2019-05-07T00:30:38.806Z,1007.2
2019-05-07T00:31:37.373Z,1007.21
2019-05-07T00:32:35.931Z,1007.23
2019-05-07T00:33:34.836Z,1007.24
2019-05-07T00:34:33.478Z,1007.22
2019-05-07T00:35:32.438Z,1007.22
2019-05-07T00:36:32.335Z,1007.22
2019-05-07T00:37:29.686Z,1007.2
2019-05-07T00:38:28.375Z,1007.17
2019-05-07T00:39:27.093Z,1007.17
2019-05-07T00:40:25.860Z,1007.2
2019-05-07T00:41:24.521Z,1007.18
2019-05-07T00:42:23.077Z,1007.19
2019-05-07T00:43:22.631Z,1007.18
2019-05-07T00:44:22.061Z,1007.21
2019-05-07T00:45:21.359Z,1007.19
2019-05-07T00:46:17.669Z,1007.19
2019-05-07T00:47:16.435Z,1007.13
2019-05-07T00:48:15.002Z,1007.17
2019-05-07T00:49:13.581Z,1007.11
2019-05-07T00:50:12.942Z,1007.17
2019-05-07T00:51:12.434Z,1007.14
2019-05-07T00:52:11.448Z,1007.08
2019-05-07T00:53:08.081Z,1007.06
2019-05-07T00:54:06.915Z,1007.14
2019-05-07T00:55:05.446Z,1007.09
2019-05-07T00:56:04.151Z,1007.11
2019-05-07T00:57:03.507Z,1007.12
2019-05-07T00:58:02.470Z,1007.08
2019-05-07T00:59:02.186Z,1007.08
2019-05-07T00:59:59.319Z,1007.07
2019-05-07T01:00:57.913Z,1007.09
2019-05-07T01:01:56.780Z,1007.11
2019-05-07T01:02:55.448Z,1007.08
2019-05-07T01:03:54.193Z,1007.09
2019-05-07T01:04:53.265Z,1007.1
2019-05-07T01:05:52.659Z,1007.06
2019-05-07T01:06:49.843Z,1007.03
2019-05-07T01:07:48.412Z,1007.06
2019-05-07T01:08:47.162Z,1007.03
2019-05-07T01:09:45.718Z,1007.02
2019-05-07T01:10:44.406Z,1007.03
2019-05-07T01:11:43.121Z,1007.05
2019-05-07T01:12:42.271Z,1007.01
2019-05-07T01:13:40.319Z,1007.04
2019-05-07T01:14:38.901Z,1007.04
2019-05-07T01:15:37.414Z,1007.01
2019-05-07T01:16:35.996Z,1007.02
2019-05-07T01:17:34.559Z,1007.03
2019-05-07T01:18:33.192Z,1006.98
2019-05-07T01:19:32.802Z,1006.95
2019-05-07T01:20:32.676Z,1006.95
2019-05-07T01:21:29.272Z,1007
2019-05-07T01:22:27.989Z,1006.94
2019-05-07T01:23:26.519Z,1006.94
2019-05-07T01:24:25.077Z,1006.9
2019-05-07T01:25:23.669Z,1006.92
2019-05-07T01:26:22.299Z,1006.9
2019-05-07T01:27:22.581Z,1006.92
2019-05-07T01:28:19.581Z,1006.88
2019-05-07T01:29:18.158Z,1006.83
2019-05-07T01:30:16.993Z,1006.85
2019-05-07T01:31:15.504Z,1006.85
2019-05-07T01:32:14.187Z,1006.88
2019-05-07T01:33:12.750Z,1006.87
2019-05-07T01:34:12.123Z,1006.85
2019-05-07T01:35:09.956Z,1006.89
2019-05-07T01:36:08.787Z,1006.83
2019-05-07T01:37:07.452Z,1006.87
2019-05-07T01:38:06.199Z,1006.87
2019-05-07T01:39:04.912Z,1006.89
2019-05-07T01:40:03.495Z,1006.88
2019-05-07T01:41:02.820Z,1006.91
2019-05-07T01:42:02.091Z,1006.91
2019-05-07T01:42:59.406Z,1006.87
2019-05-07T01:43:57.988Z,1006.87
2019-05-07T01:44:56.818Z,1006.86
2019-05-07T01:45:55.351Z,1006.88
2019-05-07T01:46:53.956Z,1006.86
2019-05-07T01:47:53.074Z,1006.88
2019-05-07T01:48:53.418Z,1006.87
2019-05-07T01:49:49.657Z,1006.9
2019-05-07T01:50:48.494Z,1006.88
2019-05-07T01:51:47.203Z,1006.86
2019-05-07T01:52:45.771Z,1006.87
2019-05-07T01:53:44.498Z,1006.86
2019-05-07T01:54:43.112Z,1006.91
2019-05-07T01:55:42.762Z,1006.85
2019-05-07T01:56:42.671Z,1006.87
2019-05-07T01:57:39.278Z,1006.88
2019-05-07T01:58:37.802Z,1006.87
2019-05-07T01:59:36.588Z,1006.87
2019-05-07T02:00:35.147Z,1006.88
2019-05-07T02:01:35.815Z,1006.88
2019-05-07T02:02:32.608Z,1006.89
2019-05-07T02:03:32.761Z,1006.87
2019-05-07T02:04:29.866Z,1006.84
2019-05-07T02:05:28.645Z,1006.86
2019-05-07T02:06:27.266Z,1006.84
2019-05-07T02:07:25.805Z,1006.8
2019-05-07T02:08:24.427Z,1006.77
2019-05-07T02:09:23.191Z,1006.8
2019-05-07T02:10:22.711Z,1006.79
2019-05-07T02:11:21.829Z,1006.76
2019-05-07T02:12:19.120Z,1006.75
2019-05-07T02:13:17.640Z,1006.76
2019-05-07T02:14:16.310Z,1006.74
2019-05-07T02:15:14.992Z,1006.69
2019-05-07T02:16:13.626Z,1006.68
2019-05-07T02:17:13.580Z,1006.67
2019-05-07T02:18:12.534Z,1006.69
2019-05-07T02:19:09.438Z,1006.66
2019-05-07T02:20:08.085Z,1006.7
2019-05-07T02:21:06.841Z,1006.69
2019-05-07T02:22:05.418Z,1006.68
2019-05-07T02:23:03.990Z,1006.65
2019-05-07T02:24:03.307Z,1006.69
2019-05-07T02:25:03.275Z,1006.66
2019-05-07T02:25:59.870Z,1006.71
2019-05-07T02:26:58.589Z,1006.7
2019-05-07T02:27:57.264Z,1006.69
2019-05-07T02:28:55.958Z,1006.7
2019-05-07T02:29:54.593Z,1006.68
2019-05-07T02:30:53.570Z,1006.71
2019-05-07T02:31:53.038Z,1006.77
2019-05-07T02:32:53.679Z,1006.8
2019-05-07T02:33:49.324Z,1006.74
2019-05-07T02:34:48.044Z,1006.76
2019-05-07T02:35:46.634Z,1006.71
2019-05-07T02:36:45.243Z,1006.68
2019-05-07T02:37:50.786Z,1006.7
2019-05-07T02:38:44.169Z,1006.75
2019-05-07T02:41:23.469Z,1006.75
2019-05-07T02:42:23.852Z,1006.75
2019-05-07T02:43:22.611Z,1006.75
2019-05-07T02:44:18.690Z,1006.79
2019-05-07T02:45:17.278Z,1006.74
2019-05-07T02:46:25.947Z,1006.74
2019-05-07T02:47:14.774Z,1006.77
2019-05-07T02:48:13.331Z,1006.77
2019-05-07T02:49:14.212Z,1006.76
2019-05-07T02:50:13.020Z,1006.74
2019-05-07T02:51:09.303Z,1006.73
2019-05-07T02:52:07.888Z,1006.77
2019-05-07T02:53:06.513Z,1006.76
2019-05-07T02:54:05.199Z,1006.73
2019-05-07T02:55:04.361Z,1006.76
2019-05-07T02:56:03.673Z,1006.71
2019-05-07T02:57:03.062Z,1006.72
2019-05-07T02:59:24.064Z,1006.72
2019-05-07T03:02:45.435Z,1006.75
2019-05-07T03:03:44.867Z,1006.78
2019-05-07T03:04:43.497Z,1006.76
2019-05-07T03:06:39.922Z,1006.73
2019-05-07T03:09:24.060Z,1006.79
2019-05-07T03:10:23.889Z,1006.81
2019-05-07T03:11:22.889Z,1006.78
2019-05-07T03:12:20.106Z,1006.83
2019-05-07T03:13:18.668Z,1006.8
2019-05-07T03:14:17.259Z,1006.8
